sensor_id;sensor_type;location;lat;lon;timestamp;P1;durP1;ratioP1;P2;durP2;ratioP2
20731;SDS011;10527;52.124;5.196;2024-03-08T00:00:11;23.87;;;15.20;;
20731;SDS011;10527;52.124;5.196;2024-03-08T00:02:42;25.60;;;14.77;;
20731;SDS011;10527;52.124;5.196;2024-03-08T00:05:14;21.10;;;14.53;;
20731;SDS011;10527;52.124;5.196;2024-03-08T00:07:42;23.80;;;14.90;;
20731;SDS011;10527;52.124;5.196;2024-03-08T00:10:10;23.43;;;14.00;;
20731;SDS011;10527;52.124;5.196;2024-03-08T00:12:41;22.70;;;14.33;;
20731;SDS011;10527;52.124;5.196;2024-03-08T00:15:12;26.23;;;15.10;;
20731;SDS011;10527;52.124;5.196;2024-03-08T00:17:44;20.87;;;13.87;;
20731;SDS011;10527;52.124;5.196;2024-03-08T00:20:13;23.80;;;14.70;;
20731;SDS011;10527;52.124;5.196;2024-03-08T00:22:45;26.00;;;14.63;;
20731;SDS011;10527;52.124;5.196;2024-03-08T00:25:13;24.00;;;14.30;;
20731;SDS011;10527;52.124;5.196;2024-03-08T00:27:41;22.30;;;14.23;;
20731;SDS011;10527;52.124;5.196;2024-03-08T00:30:09;24.23;;;14.47;;
20731;SDS011;10527;52.124;5.196;2024-03-08T00:32:40;24.03;;;14.50;;
20731;SDS011;10527;52.124;5.196;2024-03-08T00:35:07;22.53;;;15.23;;
20731;SDS011;10527;52.124;5.196;2024-03-08T00:37:35;24.17;;;14.83;;
20731;SDS011;10527;52.124;5.196;2024-03-08T00:40:03;23.83;;;14.63;;
20731;SDS011;10527;52.124;5.196;2024-03-08T00:42:36;23.20;;;14.67;;
20731;SDS011;10527;52.124;5.196;2024-03-08T00:45:04;23.93;;;14.57;;
20731;SDS011;10527;52.124;5.196;2024-03-08T00:47:32;26.87;;;14.97;;
20731;SDS011;10527;52.124;5.196;2024-03-08T00:50:00;23.10;;;14.73;;
20731;SDS011;10527;52.124;5.196;2024-03-08T00:52:30;21.03;;;14.20;;
20731;SDS011;10527;52.124;5.196;2024-03-08T00:54:58;24.80;;;14.77;;
20731;SDS011;10527;52.124;5.196;2024-03-08T00:57:25;22.77;;;14.07;;
20731;SDS011;10527;52.124;5.196;2024-03-08T00:59:54;22.93;;;14.83;;
20731;SDS011;10527;52.124;5.196;2024-03-08T01:02:22;24.37;;;15.53;;
20731;SDS011;10527;52.124;5.196;2024-03-08T01:04:50;24.87;;;15.77;;
20731;SDS011;10527;52.124;5.196;2024-03-08T01:07:18;23.53;;;14.97;;
20731;SDS011;10527;52.124;5.196;2024-03-08T01:09:46;23.07;;;14.50;;
20731;SDS011;10527;52.124;5.196;2024-03-08T01:12:13;25.97;;;15.77;;
20731;SDS011;10527;52.124;5.196;2024-03-08T01:14:41;21.87;;;14.80;;
20731;SDS011;10527;52.124;5.196;2024-03-08T01:17:08;23.77;;;13.73;;
20731;SDS011;10527;52.124;5.196;2024-03-08T01:19:36;22.37;;;14.07;;
20731;SDS011;10527;52.124;5.196;2024-03-08T01:22:03;23.00;;;14.77;;
20731;SDS011;10527;52.124;5.196;2024-03-08T01:24:31;25.53;;;14.53;;
20731;SDS011;10527;52.124;5.196;2024-03-08T01:26:58;23.43;;;15.17;;
20731;SDS011;10527;52.124;5.196;2024-03-08T01:29:26;23.13;;;15.13;;
20731;SDS011;10527;52.124;5.196;2024-03-08T01:31:56;22.90;;;14.17;;
20731;SDS011;10527;52.124;5.196;2024-03-08T01:34:24;23.53;;;14.80;;
20731;SDS011;10527;52.124;5.196;2024-03-08T01:36:51;26.00;;;15.27;;
20731;SDS011;10527;52.124;5.196;2024-03-08T01:39:19;21.37;;;14.13;;
20731;SDS011;10527;52.124;5.196;2024-03-08T01:41:48;22.40;;;14.67;;
20731;SDS011;10527;52.124;5.196;2024-03-08T01:44:17;25.13;;;16.67;;
20731;SDS011;10527;52.124;5.196;2024-03-08T01:46:45;22.07;;;14.73;;
20731;SDS011;10527;52.124;5.196;2024-03-08T01:49:13;22.33;;;14.13;;
20731;SDS011;10527;52.124;5.196;2024-03-08T01:51:41;21.73;;;14.63;;
20731;SDS011;10527;52.124;5.196;2024-03-08T01:54:09;21.63;;;14.57;;
20731;SDS011;10527;52.124;5.196;2024-03-08T01:56:39;22.00;;;14.97;;
20731;SDS011;10527;52.124;5.196;2024-03-08T01:59:06;22.10;;;14.43;;
20731;SDS011;10527;52.124;5.196;2024-03-08T02:01:35;23.70;;;15.07;;
20731;SDS011;10527;52.124;5.196;2024-03-08T02:04:03;24.77;;;15.40;;
20731;SDS011;10527;52.124;5.196;2024-03-08T02:06:33;23.50;;;15.87;;
20731;SDS011;10527;52.124;5.196;2024-03-08T02:09:00;23.27;;;14.30;;
20731;SDS011;10527;52.124;5.196;2024-03-08T02:11:33;23.43;;;15.53;;
20731;SDS011;10527;52.124;5.196;2024-03-08T02:14:03;23.57;;;14.90;;
20731;SDS011;10527;52.124;5.196;2024-03-08T02:16:33;24.03;;;15.80;;
20731;SDS011;10527;52.124;5.196;2024-03-08T02:19:00;23.03;;;15.27;;
20731;SDS011;10527;52.124;5.196;2024-03-08T02:21:28;23.23;;;15.30;;
20731;SDS011;10527;52.124;5.196;2024-03-08T02:23:56;22.13;;;14.50;;
20731;SDS011;10527;52.124;5.196;2024-03-08T02:26:23;24.30;;;15.50;;
20731;SDS011;10527;52.124;5.196;2024-03-08T02:28:50;21.70;;;14.57;;
20731;SDS011;10527;52.124;5.196;2024-03-08T02:31:18;25.33;;;16.47;;
20731;SDS011;10527;52.124;5.196;2024-03-08T02:33:45;21.17;;;14.60;;
20731;SDS011;10527;52.124;5.196;2024-03-08T02:36:13;20.60;;;14.87;;
20731;SDS011;10527;52.124;5.196;2024-03-08T02:38:43;21.20;;;15.37;;
20731;SDS011;10527;52.124;5.196;2024-03-08T02:41:10;22.83;;;15.73;;
20731;SDS011;10527;52.124;5.196;2024-03-08T02:43:39;21.57;;;15.00;;
20731;SDS011;10527;52.124;5.196;2024-03-08T02:46:07;23.00;;;15.33;;
20731;SDS011;10527;52.124;5.196;2024-03-08T02:48:34;26.03;;;15.67;;
20731;SDS011;10527;52.124;5.196;2024-03-08T02:51:02;23.23;;;14.90;;
20731;SDS011;10527;52.124;5.196;2024-03-08T02:53:30;23.23;;;15.27;;
20731;SDS011;10527;52.124;5.196;2024-03-08T02:55:57;21.00;;;14.67;;
20731;SDS011;10527;52.124;5.196;2024-03-08T02:58:25;23.73;;;15.27;;
20731;SDS011;10527;52.124;5.196;2024-03-08T03:00:52;21.07;;;15.33;;
20731;SDS011;10527;52.124;5.196;2024-03-08T03:03:22;22.40;;;15.77;;
20731;SDS011;10527;52.124;5.196;2024-03-08T03:05:49;25.17;;;15.33;;
20731;SDS011;10527;52.124;5.196;2024-03-08T03:08:16;24.93;;;15.90;;
20731;SDS011;10527;52.124;5.196;2024-03-08T03:10:44;20.93;;;14.83;;
20731;SDS011;10527;52.124;5.196;2024-03-08T03:13:12;24.00;;;15.70;;
20731;SDS011;10527;52.124;5.196;2024-03-08T03:15:41;25.17;;;15.77;;
20731;SDS011;10527;52.124;5.196;2024-03-08T03:18:08;22.90;;;15.30;;
20731;SDS011;10527;52.124;5.196;2024-03-08T03:20:36;20.53;;;14.87;;
20731;SDS011;10527;52.124;5.196;2024-03-08T03:23:10;21.17;;;15.37;;
20731;SDS011;10527;52.124;5.196;2024-03-08T03:25:42;21.93;;;15.47;;
20731;SDS011;10527;52.124;5.196;2024-03-08T03:28:10;22.43;;;15.23;;
20731;SDS011;10527;52.124;5.196;2024-03-08T03:30:41;23.33;;;15.43;;
20731;SDS011;10527;52.124;5.196;2024-03-08T03:33:10;25.47;;;16.47;;
20731;SDS011;10527;52.124;5.196;2024-03-08T03:35:39;20.17;;;14.40;;
20731;SDS011;10527;52.124;5.196;2024-03-08T03:38:08;22.97;;;16.67;;
20731;SDS011;10527;52.124;5.196;2024-03-08T03:40:38;23.27;;;15.30;;
20731;SDS011;10527;52.124;5.196;2024-03-08T03:43:08;22.87;;;16.07;;
20731;SDS011;10527;52.124;5.196;2024-03-08T03:45:38;26.27;;;16.73;;
20731;SDS011;10527;52.124;5.196;2024-03-08T03:48:08;25.33;;;15.90;;
20731;SDS011;10527;52.124;5.196;2024-03-08T03:50:37;20.10;;;14.70;;
20731;SDS011;10527;52.124;5.196;2024-03-08T03:53:06;20.40;;;15.43;;
20731;SDS011;10527;52.124;5.196;2024-03-08T03:55:36;26.53;;;15.97;;
20731;SDS011;10527;52.124;5.196;2024-03-08T03:58:06;21.17;;;16.20;;
20731;SDS011;10527;52.124;5.196;2024-03-08T04:00:37;23.97;;;16.73;;
20731;SDS011;10527;52.124;5.196;2024-03-08T04:03:05;24.50;;;15.27;;
20731;SDS011;10527;52.124;5.196;2024-03-08T04:05:34;27.10;;;16.23;;
20731;SDS011;10527;52.124;5.196;2024-03-08T04:08:02;25.27;;;16.07;;
20731;SDS011;10527;52.124;5.196;2024-03-08T04:10:29;20.77;;;15.50;;
20731;SDS011;10527;52.124;5.196;2024-03-08T04:12:57;25.63;;;17.60;;
20731;SDS011;10527;52.124;5.196;2024-03-08T04:15:24;24.27;;;16.73;;
20731;SDS011;10527;52.124;5.196;2024-03-08T04:17:52;24.77;;;16.80;;
20731;SDS011;10527;52.124;5.196;2024-03-08T04:20:20;22.40;;;15.03;;
20731;SDS011;10527;52.124;5.196;2024-03-08T04:22:48;24.23;;;15.93;;
20731;SDS011;10527;52.124;5.196;2024-03-08T04:25:16;22.50;;;16.13;;
20731;SDS011;10527;52.124;5.196;2024-03-08T04:27:44;23.20;;;16.03;;
20731;SDS011;10527;52.124;5.196;2024-03-08T04:30:12;20.83;;;15.57;;
20731;SDS011;10527;52.124;5.196;2024-03-08T04:32:39;22.47;;;15.73;;
20731;SDS011;10527;52.124;5.196;2024-03-08T04:35:10;23.33;;;16.13;;
20731;SDS011;10527;52.124;5.196;2024-03-08T04:37:39;21.30;;;15.87;;
20731;SDS011;10527;52.124;5.196;2024-03-08T04:40:07;25.47;;;16.23;;
20731;SDS011;10527;52.124;5.196;2024-03-08T04:42:35;21.30;;;15.90;;
20731;SDS011;10527;52.124;5.196;2024-03-08T04:45:04;24.07;;;16.33;;
20731;SDS011;10527;52.124;5.196;2024-03-08T04:47:34;19.40;;;14.97;;
20731;SDS011;10527;52.124;5.196;2024-03-08T04:50:03;23.33;;;16.63;;
20731;SDS011;10527;52.124;5.196;2024-03-08T04:52:31;22.97;;;16.80;;
20731;SDS011;10527;52.124;5.196;2024-03-08T04:54:59;22.77;;;16.50;;
20731;SDS011;10527;52.124;5.196;2024-03-08T04:57:26;20.80;;;15.33;;
20731;SDS011;10527;52.124;5.196;2024-03-08T04:59:56;23.90;;;17.50;;
20731;SDS011;10527;52.124;5.196;2024-03-08T05:02:26;24.60;;;16.13;;
20731;SDS011;10527;52.124;5.196;2024-03-08T05:04:54;22.80;;;15.87;;
20731;SDS011;10527;52.124;5.196;2024-03-08T05:07:21;22.80;;;16.53;;
20731;SDS011;10527;52.124;5.196;2024-03-08T05:09:49;23.03;;;15.90;;
20731;SDS011;10527;52.124;5.196;2024-03-08T05:12:18;22.00;;;16.40;;
20731;SDS011;10527;52.124;5.196;2024-03-08T05:14:46;24.37;;;16.93;;
20731;SDS011;10527;52.124;5.196;2024-03-08T05:17:16;26.53;;;17.67;;
20731;SDS011;10527;52.124;5.196;2024-03-08T05:19:44;22.47;;;16.33;;
20731;SDS011;10527;52.124;5.196;2024-03-08T05:22:11;23.93;;;17.20;;
20731;SDS011;10527;52.124;5.196;2024-03-08T05:24:40;24.77;;;16.87;;
20731;SDS011;10527;52.124;5.196;2024-03-08T05:27:08;27.17;;;17.20;;
20731;SDS011;10527;52.124;5.196;2024-03-08T05:29:35;21.40;;;15.63;;
20731;SDS011;10527;52.124;5.196;2024-03-08T05:32:04;23.63;;;16.17;;
20731;SDS011;10527;52.124;5.196;2024-03-08T05:34:31;26.60;;;17.43;;
20731;SDS011;10527;52.124;5.196;2024-03-08T05:36:59;25.17;;;16.20;;
20731;SDS011;10527;52.124;5.196;2024-03-08T05:39:26;23.27;;;16.20;;
20731;SDS011;10527;52.124;5.196;2024-03-08T05:41:54;25.93;;;17.10;;
20731;SDS011;10527;52.124;5.196;2024-03-08T05:44:22;24.07;;;16.80;;
20731;SDS011;10527;52.124;5.196;2024-03-08T05:46:49;23.47;;;16.90;;
20731;SDS011;10527;52.124;5.196;2024-03-08T05:49:17;23.77;;;17.30;;
20731;SDS011;10527;52.124;5.196;2024-03-08T05:51:44;25.33;;;18.07;;
20731;SDS011;10527;52.124;5.196;2024-03-08T05:54:14;26.47;;;16.80;;
20731;SDS011;10527;52.124;5.196;2024-03-08T05:56:45;26.07;;;17.77;;
20731;SDS011;10527;52.124;5.196;2024-03-08T05:59:14;24.17;;;17.37;;
20731;SDS011;10527;52.124;5.196;2024-03-08T06:01:42;23.47;;;16.97;;
20731;SDS011;10527;52.124;5.196;2024-03-08T06:04:09;26.57;;;17.73;;
20731;SDS011;10527;52.124;5.196;2024-03-08T06:06:38;24.20;;;17.87;;
20731;SDS011;10527;52.124;5.196;2024-03-08T06:09:07;23.27;;;17.23;;
20731;SDS011;10527;52.124;5.196;2024-03-08T06:11:51;24.20;;;16.33;;
20731;SDS011;10527;52.124;5.196;2024-03-08T06:14:21;24.50;;;16.43;;
20731;SDS011;10527;52.124;5.196;2024-03-08T06:16:50;23.40;;;16.13;;
20731;SDS011;10527;52.124;5.196;2024-03-08T06:19:17;23.37;;;16.73;;
20731;SDS011;10527;52.124;5.196;2024-03-08T06:21:44;22.90;;;16.60;;
20731;SDS011;10527;52.124;5.196;2024-03-08T06:24:12;23.73;;;16.93;;
20731;SDS011;10527;52.124;5.196;2024-03-08T06:26:42;25.30;;;17.83;;
20731;SDS011;10527;52.124;5.196;2024-03-08T06:29:09;27.73;;;17.67;;
20731;SDS011;10527;52.124;5.196;2024-03-08T06:31:37;23.27;;;16.80;;
20731;SDS011;10527;52.124;5.196;2024-03-08T06:34:06;23.27;;;17.03;;
20731;SDS011;10527;52.124;5.196;2024-03-08T06:36:37;24.80;;;18.03;;
20731;SDS011;10527;52.124;5.196;2024-03-08T06:39:05;22.93;;;16.70;;
20731;SDS011;10527;52.124;5.196;2024-03-08T06:41:36;24.77;;;18.33;;
20731;SDS011;10527;52.124;5.196;2024-03-08T06:44:04;26.03;;;18.10;;
20731;SDS011;10527;52.124;5.196;2024-03-08T06:46:34;26.93;;;18.53;;
20731;SDS011;10527;52.124;5.196;2024-03-08T06:49:02;20.97;;;17.17;;
20731;SDS011;10527;52.124;5.196;2024-03-08T06:51:30;25.43;;;18.27;;
20731;SDS011;10527;52.124;5.196;2024-03-08T06:53:58;26.50;;;18.87;;
20731;SDS011;10527;52.124;5.196;2024-03-08T06:56:25;27.00;;;18.20;;
20731;SDS011;10527;52.124;5.196;2024-03-08T06:58:53;22.93;;;17.13;;
20731;SDS011;10527;52.124;5.196;2024-03-08T07:01:21;27.10;;;18.83;;
20731;SDS011;10527;52.124;5.196;2024-03-08T07:03:49;25.23;;;18.50;;
20731;SDS011;10527;52.124;5.196;2024-03-08T07:06:19;26.10;;;19.50;;
20731;SDS011;10527;52.124;5.196;2024-03-08T07:08:47;23.80;;;17.80;;
20731;SDS011;10527;52.124;5.196;2024-03-08T07:11:15;24.23;;;17.47;;
20731;SDS011;10527;52.124;5.196;2024-03-08T07:13:45;25.80;;;18.03;;
20731;SDS011;10527;52.124;5.196;2024-03-08T07:16:12;24.80;;;17.70;;
20731;SDS011;10527;52.124;5.196;2024-03-08T07:18:40;27.27;;;17.60;;
20731;SDS011;10527;52.124;5.196;2024-03-08T07:21:10;24.67;;;16.77;;
20731;SDS011;10527;52.124;5.196;2024-03-08T07:23:37;25.17;;;17.37;;
20731;SDS011;10527;52.124;5.196;2024-03-08T07:26:28;24.40;;;17.67;;
20731;SDS011;10527;52.124;5.196;2024-03-08T07:28:56;22.83;;;17.33;;
20731;SDS011;10527;52.124;5.196;2024-03-08T07:31:25;24.43;;;16.97;;
20731;SDS011;10527;52.124;5.196;2024-03-08T07:33:52;25.23;;;17.70;;
20731;SDS011;10527;52.124;5.196;2024-03-08T07:36:20;21.63;;;16.23;;
20731;SDS011;10527;52.124;5.196;2024-03-08T07:38:48;25.70;;;17.87;;
20731;SDS011;10527;52.124;5.196;2024-03-08T07:41:16;25.13;;;18.10;;
20731;SDS011;10527;52.124;5.196;2024-03-08T07:43:44;26.10;;;17.63;;
20731;SDS011;10527;52.124;5.196;2024-03-08T07:46:11;27.23;;;19.00;;
20731;SDS011;10527;52.124;5.196;2024-03-08T07:48:39;25.37;;;18.03;;
20731;SDS011;10527;52.124;5.196;2024-03-08T07:51:07;26.97;;;18.57;;
20731;SDS011;10527;52.124;5.196;2024-03-08T07:53:36;25.83;;;19.20;;
20731;SDS011;10527;52.124;5.196;2024-03-08T07:56:04;25.60;;;18.13;;
20731;SDS011;10527;52.124;5.196;2024-03-08T07:58:32;24.27;;;18.00;;
20731;SDS011;10527;52.124;5.196;2024-03-08T08:01:01;23.97;;;17.93;;
20731;SDS011;10527;52.124;5.196;2024-03-08T08:03:29;24.90;;;17.93;;
20731;SDS011;10527;52.124;5.196;2024-03-08T08:05:56;24.37;;;17.60;;
20731;SDS011;10527;52.124;5.196;2024-03-08T08:08:24;26.60;;;17.90;;
20731;SDS011;10527;52.124;5.196;2024-03-08T08:10:52;25.77;;;17.83;;
20731;SDS011;10527;52.124;5.196;2024-03-08T08:13:22;29.17;;;18.47;;
20731;SDS011;10527;52.124;5.196;2024-03-08T08:15:50;24.40;;;18.17;;
20731;SDS011;10527;52.124;5.196;2024-03-08T08:18:17;25.77;;;18.93;;
20731;SDS011;10527;52.124;5.196;2024-03-08T08:20:47;24.90;;;17.90;;
20731;SDS011;10527;52.124;5.196;2024-03-08T08:23:16;27.70;;;19.47;;
20731;SDS011;10527;52.124;5.196;2024-03-08T08:25:43;25.93;;;19.10;;
20731;SDS011;10527;52.124;5.196;2024-03-08T08:28:11;25.37;;;18.70;;
20731;SDS011;10527;52.124;5.196;2024-03-08T08:30:39;24.73;;;18.07;;
20731;SDS011;10527;52.124;5.196;2024-03-08T08:33:06;22.57;;;17.23;;
20731;SDS011;10527;52.124;5.196;2024-03-08T08:35:35;24.40;;;18.03;;
20731;SDS011;10527;52.124;5.196;2024-03-08T08:38:04;24.90;;;18.27;;
20731;SDS011;10527;52.124;5.196;2024-03-08T08:40:31;27.47;;;19.33;;
20731;SDS011;10527;52.124;5.196;2024-03-08T08:42:59;26.70;;;19.03;;
20731;SDS011;10527;52.124;5.196;2024-03-08T08:45:27;24.77;;;18.10;;
20731;SDS011;10527;52.124;5.196;2024-03-08T08:47:54;24.33;;;18.27;;
20731;SDS011;10527;52.124;5.196;2024-03-08T08:50:22;25.53;;;19.33;;
20731;SDS011;10527;52.124;5.196;2024-03-08T08:52:50;26.63;;;19.87;;
20731;SDS011;10527;52.124;5.196;2024-03-08T08:55:20;26.90;;;17.87;;
20731;SDS011;10527;52.124;5.196;2024-03-08T08:57:52;24.43;;;17.20;;
20731;SDS011;10527;52.124;5.196;2024-03-08T09:00:20;22.03;;;17.03;;
20731;SDS011;10527;52.124;5.196;2024-03-08T09:02:50;22.17;;;17.23;;
20731;SDS011;10527;52.124;5.196;2024-03-08T09:05:18;21.52;;;15.98;;
20731;SDS011;10527;52.124;5.196;2024-03-08T09:07:45;19.63;;;15.02;;
20731;SDS011;10527;52.124;5.196;2024-03-08T09:10:13;20.63;;;16.23;;
20731;SDS011;10527;52.124;5.196;2024-03-08T09:12:43;18.63;;;14.00;;
20731;SDS011;10527;52.124;5.196;2024-03-08T09:15:11;19.45;;;14.90;;
20731;SDS011;10527;52.124;5.196;2024-03-08T09:17:39;20.20;;;14.80;;
20731;SDS011;10527;52.124;5.196;2024-03-08T09:20:08;18.67;;;15.00;;
20731;SDS011;10527;52.124;5.196;2024-03-08T09:22:44;18.05;;;14.15;;
20731;SDS011;10527;52.124;5.196;2024-03-08T09:25:12;21.38;;;15.43;;
20731;SDS011;10527;52.124;5.196;2024-03-08T09:27:41;20.17;;;15.13;;
20731;SDS011;10527;52.124;5.196;2024-03-08T09:30:08;19.60;;;14.88;;
20731;SDS011;10527;52.124;5.196;2024-03-08T09:32:39;20.60;;;15.55;;
20731;SDS011;10527;52.124;5.196;2024-03-08T09:35:07;19.63;;;14.75;;
20731;SDS011;10527;52.124;5.196;2024-03-08T09:37:35;20.75;;;14.70;;
20731;SDS011;10527;52.124;5.196;2024-03-08T09:40:04;20.45;;;15.40;;
20731;SDS011;10527;52.124;5.196;2024-03-08T09:42:36;18.73;;;14.80;;
20731;SDS011;10527;52.124;5.196;2024-03-08T09:45:11;18.90;;;14.88;;
20731;SDS011;10527;52.124;5.196;2024-03-08T09:47:42;19.10;;;13.48;;
20731;SDS011;10527;52.124;5.196;2024-03-08T09:50:11;15.90;;;13.35;;
20731;SDS011;10527;52.124;5.196;2024-03-08T09:52:39;18.75;;;14.73;;
20731;SDS011;10527;52.124;5.196;2024-03-08T09:55:10;19.27;;;13.82;;
20731;SDS011;10527;52.124;5.196;2024-03-08T09:57:38;17.65;;;14.05;;
20731;SDS011;10527;52.124;5.196;2024-03-08T10:00:06;18.85;;;14.48;;
20731;SDS011;10527;52.124;5.196;2024-03-08T10:02:45;21.08;;;14.20;;
20731;SDS011;10527;52.124;5.196;2024-03-08T10:05:13;16.70;;;13.93;;
20731;SDS011;10527;52.124;5.196;2024-03-08T10:07:40;17.00;;;13.45;;
20731;SDS011;10527;52.124;5.196;2024-03-08T10:10:08;18.83;;;14.23;;
20731;SDS011;10527;52.124;5.196;2024-03-08T10:12:38;18.25;;;14.38;;
20731;SDS011;10527;52.124;5.196;2024-03-08T10:15:07;18.73;;;13.68;;
20731;SDS011;10527;52.124;5.196;2024-03-08T10:17:35;17.77;;;13.77;;
20731;SDS011;10527;52.124;5.196;2024-03-08T10:20:02;16.75;;;13.48;;
20731;SDS011;10527;52.124;5.196;2024-03-08T10:22:41;17.35;;;13.85;;
20731;SDS011;10527;52.124;5.196;2024-03-08T10:25:23;18.75;;;14.35;;
20731;SDS011;10527;52.124;5.196;2024-03-08T10:27:51;15.90;;;13.75;;
20731;SDS011;10527;52.124;5.196;2024-03-08T10:30:19;17.85;;;13.95;;
20731;SDS011;10527;52.124;5.196;2024-03-08T10:32:48;18.05;;;13.55;;
20731;SDS011;10527;52.124;5.196;2024-03-08T10:35:16;19.77;;;13.65;;
20731;SDS011;10527;52.124;5.196;2024-03-08T10:37:47;19.13;;;14.38;;
20731;SDS011;10527;52.124;5.196;2024-03-08T10:40:17;21.17;;;13.18;;
20731;SDS011;10527;52.124;5.196;2024-03-08T10:42:53;16.40;;;12.85;;
20731;SDS011;10527;52.124;5.196;2024-03-08T10:45:39;20.75;;;13.95;;
20731;SDS011;10527;52.124;5.196;2024-03-08T10:51:05;17.40;;;13.00;;
20731;SDS011;10527;52.124;5.196;2024-03-08T10:53:34;16.08;;;12.13;;
20731;SDS011;10527;52.124;5.196;2024-03-08T10:56:03;16.33;;;11.98;;
20731;SDS011;10527;52.124;5.196;2024-03-08T10:58:31;17.42;;;13.10;;
20731;SDS011;10527;52.124;5.196;2024-03-08T11:01:00;16.05;;;13.18;;
20731;SDS011;10527;52.124;5.196;2024-03-08T11:06:58;16.75;;;12.73;;
20731;SDS011;10527;52.124;5.196;2024-03-08T11:14:46;16.05;;;11.75;;
20731;SDS011;10527;52.124;5.196;2024-03-08T11:17:16;16.35;;;11.65;;
20731;SDS011;10527;52.124;5.196;2024-03-08T11:19:49;18.35;;;12.27;;
20731;SDS011;10527;52.124;5.196;2024-03-08T11:22:22;15.90;;;11.32;;
20731;SDS011;10527;52.124;5.196;2024-03-08T11:24:58;14.48;;;11.68;;
20731;SDS011;10527;52.124;5.196;2024-03-08T11:27:31;15.33;;;11.97;;
20731;SDS011;10527;52.124;5.196;2024-03-08T11:30:03;16.38;;;11.88;;
20731;SDS011;10527;52.124;5.196;2024-03-08T11:32:46;16.95;;;12.13;;
20731;SDS011;10527;52.124;5.196;2024-03-08T11:35:21;15.65;;;13.35;;
20731;SDS011;10527;52.124;5.196;2024-03-08T11:37:50;18.57;;;13.03;;
20731;SDS011;10527;52.124;5.196;2024-03-08T11:40:17;16.87;;;12.97;;
20731;SDS011;10527;52.124;5.196;2024-03-08T11:42:47;17.30;;;12.87;;
20731;SDS011;10527;52.124;5.196;2024-03-08T11:45:15;17.33;;;11.93;;
20731;SDS011;10527;52.124;5.196;2024-03-08T11:47:44;16.10;;;12.35;;
20731;SDS011;10527;52.124;5.196;2024-03-08T11:50:13;15.27;;;12.05;;
20731;SDS011;10527;52.124;5.196;2024-03-08T11:52:41;16.95;;;12.80;;
20731;SDS011;10527;52.124;5.196;2024-03-08T11:55:10;17.57;;;12.90;;
20731;SDS011;10527;52.124;5.196;2024-03-08T11:57:39;16.55;;;12.75;;
20731;SDS011;10527;52.124;5.196;2024-03-08T12:00:27;16.08;;;12.27;;
20731;SDS011;10527;52.124;5.196;2024-03-08T12:03:02;14.23;;;11.50;;
20731;SDS011;10527;52.124;5.196;2024-03-08T12:05:36;15.20;;;11.30;;
20731;SDS011;10527;52.124;5.196;2024-03-08T12:08:04;14.75;;;11.25;;
20731;SDS011;10527;52.124;5.196;2024-03-08T12:10:38;13.07;;;10.10;;
20731;SDS011;10527;52.124;5.196;2024-03-08T12:13:06;14.23;;;10.75;;
20731;SDS011;10527;52.124;5.196;2024-03-08T12:15:39;14.45;;;10.48;;
20731;SDS011;10527;52.124;5.196;2024-03-08T12:18:07;14.93;;;10.98;;
20731;SDS011;10527;52.124;5.196;2024-03-08T12:20:37;13.80;;;9.65;;
20731;SDS011;10527;52.124;5.196;2024-03-08T12:23:05;11.65;;;9.52;;
20731;SDS011;10527;52.124;5.196;2024-03-08T12:25:39;12.63;;;9.55;;
20731;SDS011;10527;52.124;5.196;2024-03-08T12:28:10;14.00;;;9.90;;
20731;SDS011;10527;52.124;5.196;2024-03-08T12:30:47;11.45;;;9.13;;
20731;SDS011;10527;52.124;5.196;2024-03-08T12:33:19;12.98;;;9.73;;
20731;SDS011;10527;52.124;5.196;2024-03-08T12:35:53;13.63;;;9.88;;
20731;SDS011;10527;52.124;5.196;2024-03-08T12:38:22;13.25;;;10.15;;
20731;SDS011;10527;52.124;5.196;2024-03-08T12:41:00;11.90;;;9.60;;
20731;SDS011;10527;52.124;5.196;2024-03-08T12:43:28;14.60;;;9.77;;
20731;SDS011;10527;52.124;5.196;2024-03-08T12:46:00;14.45;;;10.48;;
20731;SDS011;10527;52.124;5.196;2024-03-08T12:48:34;14.02;;;10.18;;
20731;SDS011;10527;52.124;5.196;2024-03-08T12:51:03;13.68;;;9.43;;
20731;SDS011;10527;52.124;5.196;2024-03-08T12:53:32;19.25;;;11.32;;
20731;SDS011;10527;52.124;5.196;2024-03-08T12:56:00;14.93;;;11.13;;
20731;SDS011;10527;52.124;5.196;2024-03-08T12:58:27;14.88;;;11.18;;
20731;SDS011;10527;52.124;5.196;2024-03-08T13:00:55;17.00;;;11.27;;
20731;SDS011;10527;52.124;5.196;2024-03-08T13:03:23;12.13;;;9.82;;
20731;SDS011;10527;52.124;5.196;2024-03-08T13:05:50;12.60;;;9.77;;
20731;SDS011;10527;52.124;5.196;2024-03-08T13:08:17;10.93;;;9.32;;
20731;SDS011;10527;52.124;5.196;2024-03-08T13:10:45;13.95;;;10.10;;
20731;SDS011;10527;52.124;5.196;2024-03-08T13:13:12;13.55;;;10.15;;
20731;SDS011;10527;52.124;5.196;2024-03-08T13:15:44;13.52;;;10.73;;
20731;SDS011;10527;52.124;5.196;2024-03-08T13:18:11;13.50;;;10.25;;
20731;SDS011;10527;52.124;5.196;2024-03-08T13:20:39;12.07;;;9.50;;
20731;SDS011;10527;52.124;5.196;2024-03-08T13:23:13;16.20;;;11.15;;
20731;SDS011;10527;52.124;5.196;2024-03-08T13:25:42;14.25;;;9.95;;
20731;SDS011;10527;52.124;5.196;2024-03-08T13:28:09;13.48;;;10.55;;
20731;SDS011;10527;52.124;5.196;2024-03-08T13:30:37;16.52;;;10.20;;
20731;SDS011;10527;52.124;5.196;2024-03-08T13:33:05;14.10;;;10.30;;
20731;SDS011;10527;52.124;5.196;2024-03-08T13:35:34;13.85;;;9.88;;
20731;SDS011;10527;52.124;5.196;2024-03-08T13:38:01;13.55;;;9.88;;
20731;SDS011;10527;52.124;5.196;2024-03-08T13:40:31;13.75;;;11.25;;
20731;SDS011;10527;52.124;5.196;2024-03-08T13:42:58;13.13;;;9.98;;
20731;SDS011;10527;52.124;5.196;2024-03-08T13:45:27;13.25;;;10.02;;
20731;SDS011;10527;52.124;5.196;2024-03-08T13:47:55;13.75;;;10.68;;
20731;SDS011;10527;52.124;5.196;2024-03-08T13:50:23;17.90;;;11.93;;
20731;SDS011;10527;52.124;5.196;2024-03-08T13:52:52;14.70;;;10.90;;
20731;SDS011;10527;52.124;5.196;2024-03-08T13:55:22;13.40;;;10.18;;
20731;SDS011;10527;52.124;5.196;2024-03-08T13:57:52;13.95;;;10.77;;
20731;SDS011;10527;52.124;5.196;2024-03-08T14:00:20;16.75;;;10.68;;
20731;SDS011;10527;52.124;5.196;2024-03-08T14:02:49;15.90;;;10.82;;
20731;SDS011;10527;52.124;5.196;2024-03-08T14:05:17;20.25;;;11.98;;
20731;SDS011;10527;52.124;5.196;2024-03-08T14:07:46;16.83;;;10.98;;
20731;SDS011;10527;52.124;5.196;2024-03-08T14:10:16;14.40;;;10.25;;
20731;SDS011;10527;52.124;5.196;2024-03-08T14:12:47;15.82;;;11.50;;
20731;SDS011;10527;52.124;5.196;2024-03-08T14:15:17;13.38;;;9.77;;
20731;SDS011;10527;52.124;5.196;2024-03-08T14:17:45;15.15;;;10.98;;
20731;SDS011;10527;52.124;5.196;2024-03-08T14:20:21;15.57;;;11.13;;
20731;SDS011;10527;52.124;5.196;2024-03-08T14:22:54;17.13;;;11.50;;
20731;SDS011;10527;52.124;5.196;2024-03-08T14:25:23;15.50;;;11.45;;
20731;SDS011;10527;52.124;5.196;2024-03-08T14:27:51;15.32;;;11.85;;
20731;SDS011;10527;52.124;5.196;2024-03-08T14:30:20;14.65;;;10.88;;
20731;SDS011;10527;52.124;5.196;2024-03-08T14:33:08;14.00;;;10.77;;
20731;SDS011;10527;52.124;5.196;2024-03-08T14:35:36;15.23;;;11.98;;
20731;SDS011;10527;52.124;5.196;2024-03-08T14:38:04;13.20;;;10.82;;
20731;SDS011;10527;52.124;5.196;2024-03-08T14:40:37;15.05;;;11.32;;
20731;SDS011;10527;52.124;5.196;2024-03-08T14:43:05;15.85;;;11.13;;
20731;SDS011;10527;52.124;5.196;2024-03-08T14:45:32;13.68;;;10.73;;